sensor_id;sensor_type;location;lat;lon;timestamp;pressure;altitude;pressure_sealevel;temperature;humidity
64889;BME280;51386;53.082;8.816;2023-08-06T00:01:03;100641.38;;;20.88;60.23
64889;BME280;51386;53.082;8.816;2023-08-06T00:03:30;100640.06;;;20.91;60.71
64889;BME280;51386;53.082;8.816;2023-08-06T00:05:58;100636.34;;;20.92;60.46
64889;BME280;51386;53.082;8.816;2023-08-06T00:08:25;100641.19;;;20.95;60.58
64889;BME280;51386;53.082;8.816;2023-08-06T00:10:52;100642.84;;;20.96;60.11
64889;BME280;51386;53.082;8.816;2023-08-06T00:13:19;100647.13;;;20.97;60.54
64889;BME280;51386;53.082;8.816;2023-08-06T00:15:46;100643.66;;;20.97;60.51
64889;BME280;51386;53.082;8.816;2023-08-06T00:18:14;100641.19;;;20.95;60.38
64889;BME280;51386;53.082;8.816;2023-08-06T00:20:41;100630.97;;;20.92;60.40
64889;BME280;51386;53.082;8.816;2023-08-06T00:23:08;100641.13;;;20.90;60.40
64889;BME280;51386;53.082;8.816;2023-08-06T00:25:36;100640.06;;;20.91;59.88
64889;BME280;51386;53.082;8.816;2023-08-06T00:28:03;100634.94;;;20.89;60.29
64889;BME280;51386;53.082;8.816;2023-08-06T00:30:31;100629.38;;;20.91;60.50
64889;BME280;51386;53.082;8.816;2023-08-06T00:32:58;100633.09;;;20.90;60.35
64889;BME280;51386;53.082;8.816;2023-08-06T00:35:26;100633.91;;;20.90;60.07
64889;BME280;51386;53.082;8.816;2023-08-06T00:37:54;100630.19;;;20.91;60.79
64889;BME280;51386;53.082;8.816;2023-08-06T00:40:21;100630.75;;;20.93;60.77
64889;BME280;51386;53.082;8.816;2023-08-06T00:42:49;100622.47;;;20.95;60.20
64889;BME280;51386;53.082;8.816;2023-08-06T00:45:16;100627.59;;;20.97;60.62
64889;BME280;51386;53.082;8.816;2023-08-06T00:47:43;100631.63;;;20.99;60.30
64889;BME280;51386;53.082;8.816;2023-08-06T00:50:12;100627.91;;;21.00;60.80
64889;BME280;51386;53.082;8.816;2023-08-06T00:52:41;100619.63;;;21.02;59.98
64889;BME280;51386;53.082;8.816;2023-08-06T00:55:09;100619.16;;;21.05;60.64
64889;BME280;51386;53.082;8.816;2023-08-06T00:57:37;100619.50;;;21.08;59.73
64889;BME280;51386;53.082;8.816;2023-08-06T01:00:06;100609.34;;;21.10;60.25
64889;BME280;51386;53.082;8.816;2023-08-06T01:02:33;100622.25;;;21.13;60.01
64889;BME280;51386;53.082;8.816;2023-08-06T01:05:00;100607.78;;;21.14;59.87
64889;BME280;51386;53.082;8.816;2023-08-06T01:07:47;100601.88;;;21.12;59.30
64889;BME280;51386;53.082;8.816;2023-08-06T01:10:30;100601.81;;;21.07;58.83
64889;BME280;51386;53.082;8.816;2023-08-06T01:13:11;100589.94;;;21.03;59.14
64889;BME280;51386;53.082;8.816;2023-08-06T01:15:46;100584.59;;;21.03;59.38
64889;BME280;51386;53.082;8.816;2023-08-06T01:18:15;100578.41;;;21.03;59.70
64889;BME280;51386;53.082;8.816;2023-08-06T01:20:43;100580.28;;;21.02;59.34
64889;BME280;51386;53.082;8.816;2023-08-06T01:23:10;100581.34;;;21.01;59.88
64889;BME280;51386;53.082;8.816;2023-08-06T01:25:47;100572.75;;;20.99;59.28
64889;BME280;51386;53.082;8.816;2023-08-06T01:28:23;100572.75;;;20.99;59.87
64889;BME280;51386;53.082;8.816;2023-08-06T01:30:59;100577.03;;;21.00;60.04
64889;BME280;51386;53.082;8.816;2023-08-06T01:33:29;100566.91;;;21.02;59.91
64889;BME280;51386;53.082;8.816;2023-08-06T01:36:02;100560.00;;;21.06;60.05
64889;BME280;51386;53.082;8.816;2023-08-06T01:38:30;100561.16;;;21.10;59.91
64889;BME280;51386;53.082;8.816;2023-08-06T01:40:57;100568.94;;;21.12;59.81
64889;BME280;51386;53.082;8.816;2023-08-06T01:43:24;100571.63;;;21.12;59.68
64889;BME280;51386;53.082;8.816;2023-08-06T01:45:51;100570.13;;;21.04;59.22
64889;BME280;51386;53.082;8.816;2023-08-06T01:48:18;100567.38;;;20.99;59.48
64889;BME280;51386;53.082;8.816;2023-08-06T01:50:45;100568.94;;;20.95;59.62
64889;BME280;51386;53.082;8.816;2023-08-06T01:53:14;100562.78;;;20.94;59.79
64889;BME280;51386;53.082;8.816;2023-08-06T01:55:41;100563.84;;;20.93;59.99
64889;BME280;51386;53.082;8.816;2023-08-06T01:58:08;100563.50;;;20.90;59.81
64889;BME280;51386;53.082;8.816;2023-08-06T02:00:35;100552.81;;;20.90;59.89
64889;BME280;51386;53.082;8.816;2023-08-06T02:03:02;100549.28;;;20.84;59.73
64889;BME280;51386;53.082;8.816;2023-08-06T02:05:29;100549.44;;;20.78;59.46
64889;BME280;51386;53.082;8.816;2023-08-06T02:07:56;100549.13;;;20.74;59.61
64889;BME280;51386;53.082;8.816;2023-08-06T02:10:25;100550.72;;;20.75;59.92
64889;BME280;51386;53.082;8.816;2023-08-06T02:12:52;100555.03;;;20.76;59.75
64889;BME280;51386;53.082;8.816;2023-08-06T02:15:19;100544.41;;;20.81;59.79
64889;BME280;51386;53.082;8.816;2023-08-06T02:17:46;100546.59;;;20.84;59.73
64889;BME280;51386;53.082;8.816;2023-08-06T02:20:13;100540.19;;;20.85;60.04
64889;BME280;51386;53.082;8.816;2023-08-06T02:22:40;100551.69;;;20.86;59.56
64889;BME280;51386;53.082;8.816;2023-08-06T02:25:08;100548.75;;;20.87;59.80
64889;BME280;51386;53.082;8.816;2023-08-06T02:27:37;100546.63;;;20.89;59.80
64889;BME280;51386;53.082;8.816;2023-08-06T02:30:06;100541.63;;;20.93;59.64
64889;BME280;51386;53.082;8.816;2023-08-06T02:32:33;100537.91;;;20.94;59.86
64889;BME280;51386;53.082;8.816;2023-08-06T02:35:03;100543.25;;;20.94;59.35
64889;BME280;51386;53.082;8.816;2023-08-06T02:37:30;100533.09;;;20.96;59.74
64889;BME280;51386;53.082;8.816;2023-08-06T02:39:57;100533.19;;;21.01;59.86
64889;BME280;51386;53.082;8.816;2023-08-06T02:42:24;100534.31;;;21.05;59.64
64889;BME280;51386;53.082;8.816;2023-08-06T02:44:54;100526.03;;;21.07;59.62
64889;BME280;51386;53.082;8.816;2023-08-06T02:47:23;100537.06;;;21.10;60.06
64889;BME280;51386;53.082;8.816;2023-08-06T02:49:50;100528.56;;;21.13;59.57
64889;BME280;51386;53.082;8.816;2023-08-06T02:52:18;100534.47;;;21.15;59.78
64889;BME280;51386;53.082;8.816;2023-08-06T02:54:45;100527.47;;;21.14;59.32
64889;BME280;51386;53.082;8.816;2023-08-06T02:57:12;100522.13;;;21.14;59.87
64889;BME280;51386;53.082;8.816;2023-08-06T02:59:39;100512.47;;;21.13;59.43
64889;BME280;51386;53.082;8.816;2023-08-06T03:02:07;100513.81;;;21.16;59.95
64889;BME280;51386;53.082;8.816;2023-08-06T03:04:34;100511.41;;;21.14;59.26
64889;BME280;51386;53.082;8.816;2023-08-06T03:07:01;100498.50;;;21.11;59.33
64889;BME280;51386;53.082;8.816;2023-08-06T03:09:28;100504.44;;;21.13;59.67
64889;BME280;51386;53.082;8.816;2023-08-06T03:11:55;100495.34;;;21.14;59.67
64889;BME280;51386;53.082;8.816;2023-08-06T03:14:22;100501.78;;;21.13;59.55
64889;BME280;51386;53.082;8.816;2023-08-06T03:16:49;100502.81;;;21.12;59.30
64889;BME280;51386;53.082;8.816;2023-08-06T03:19:17;100501.19;;;21.11;59.56
64889;BME280;51386;53.082;8.816;2023-08-06T03:21:44;100496.91;;;21.10;59.50
64889;BME280;51386;53.082;8.816;2023-08-06T03:24:13;100495.28;;;21.09;59.61
64889;BME280;51386;53.082;8.816;2023-08-06T03:26:40;100489.38;;;21.07;59.31
64889;BME280;51386;53.082;8.816;2023-08-06T03:29:07;100487.75;;;21.06;59.25
64889;BME280;51386;53.082;8.816;2023-08-06T03:31:34;100481.34;;;21.07;59.83
64889;BME280;51386;53.082;8.816;2023-08-06T03:34:01;100485.66;;;21.08;59.36
64889;BME280;51386;53.082;8.816;2023-08-06T03:36:30;100475.72;;;21.09;59.22
64889;BME280;51386;53.082;8.816;2023-08-06T03:38:57;100476.53;;;21.09;59.66
64889;BME280;51386;53.082;8.816;2023-08-06T03:41:24;100478.66;;;21.07;58.94
64889;BME280;51386;53.082;8.816;2023-08-06T03:43:51;100464.72;;;21.05;59.56
64889;BME280;51386;53.082;8.816;2023-08-06T03:46:18;100469.00;;;21.06;59.34
64889;BME280;51386;53.082;8.816;2023-08-06T03:48:45;100458.28;;;21.06;59.05
64889;BME280;51386;53.082;8.816;2023-08-06T03:51:12;100461.78;;;21.07;59.91
64889;BME280;51386;53.082;8.816;2023-08-06T03:53:40;100453.53;;;21.08;59.48
64889;BME280;51386;53.082;8.816;2023-08-06T03:56:07;100453.00;;;21.11;59.31
64889;BME280;51386;53.082;8.816;2023-08-06T03:58:34;100452.50;;;21.14;59.40
64889;BME280;51386;53.082;8.816;2023-08-06T04:01:02;100454.16;;;21.15;59.17
64889;BME280;51386;53.082;8.816;2023-08-06T04:03:30;100448.25;;;21.18;59.58
64889;BME280;51386;53.082;8.816;2023-08-06T04:05:57;100456.88;;;21.20;58.48
64889;BME280;51386;53.082;8.816;2023-08-06T04:08:24;100460.59;;;21.19;58.74
64889;BME280;51386;53.082;8.816;2023-08-06T04:10:53;100460.59;;;21.19;58.66
64889;BME280;51386;53.082;8.816;2023-08-06T04:13:20;100452.56;;;21.19;58.70
64889;BME280;51386;53.082;8.816;2023-08-06T04:15:47;100465.97;;;21.19;58.66
64889;BME280;51386;53.082;8.816;2023-08-06T04:18:16;100462.25;;;21.20;59.07
64889;BME280;51386;53.082;8.816;2023-08-06T04:20:43;100457.66;;;21.21;58.98
64889;BME280;51386;53.082;8.816;2023-08-06T04:23:12;100463.84;;;21.21;59.11
64889;BME280;51386;53.082;8.816;2023-08-06T04:25:39;100463.28;;;21.19;58.84
64889;BME280;51386;53.082;8.816;2023-08-06T04:28:07;100465.97;;;21.19;58.91
64889;BME280;51386;53.082;8.816;2023-08-06T04:30:36;100459.25;;;21.17;58.79
64889;BME280;51386;53.082;8.816;2023-08-06T04:33:03;100464.03;;;21.15;58.50
64889;BME280;51386;53.082;8.816;2023-08-06T04:35:30;100456.75;;;21.10;58.31
64889;BME280;51386;53.082;8.816;2023-08-06T04:37:58;100457.31;;;21.12;58.65
64889;BME280;51386;53.082;8.816;2023-08-06T04:40:25;100456.28;;;21.13;59.12
64889;BME280;51386;53.082;8.816;2023-08-06T04:42:53;100473.44;;;21.17;58.82
64889;BME280;51386;53.082;8.816;2023-08-06T04:45:21;100468.09;;;21.17;58.61
64889;BME280;51386;53.082;8.816;2023-08-06T04:47:50;100462.72;;;21.17;58.65
64889;BME280;51386;53.082;8.816;2023-08-06T04:50:17;100469.13;;;21.16;58.34
64889;BME280;51386;53.082;8.816;2023-08-06T04:52:44;100464.84;;;21.15;58.41
64889;BME280;51386;53.082;8.816;2023-08-06T04:55:11;100459.50;;;21.15;59.04
64889;BME280;51386;53.082;8.816;2023-08-06T04:57:38;100467.81;;;21.19;58.69
64889;BME280;51386;53.082;8.816;2023-08-06T05:00:07;100453.13;;;21.21;58.65
64889;BME280;51386;53.082;8.816;2023-08-06T05:02:36;100453.94;;;21.22;58.74
64889;BME280;51386;53.082;8.816;2023-08-06T05:05:05;100456.34;;;21.23;58.83
64889;BME280;51386;53.082;8.816;2023-08-06T05:07:33;100467.06;;;21.23;58.23
64889;BME280;51386;53.082;8.816;2023-08-06T05:10:00;100463.34;;;21.24;58.64
64889;BME280;51386;53.082;8.816;2023-08-06T05:12:27;100464.94;;;21.25;58.82
64889;BME280;51386;53.082;8.816;2023-08-06T05:14:54;100464.72;;;21.27;58.72
64889;BME280;51386;53.082;8.816;2023-08-06T05:17:21;100468.22;;;21.27;58.37
64889;BME280;51386;53.082;8.816;2023-08-06T05:19:51;100459.09;;;21.28;58.14
64889;BME280;51386;53.082;8.816;2023-08-06T05:22:18;100453.75;;;21.28;58.41
64889;BME280;51386;53.082;8.816;2023-08-06T05:24:45;100460.72;;;21.29;58.62
64889;BME280;51386;53.082;8.816;2023-08-06T05:27:12;100458.88;;;21.30;58.46
64889;BME280;51386;53.082;8.816;2023-08-06T05:29:39;100460.19;;;21.32;58.75
64889;BME280;51386;53.082;8.816;2023-08-06T05:32:07;100469.09;;;21.38;58.88
64889;BME280;51386;53.082;8.816;2023-08-06T05:34:34;100460.56;;;21.41;58.22
64889;BME280;51386;53.082;8.816;2023-08-06T05:37:03;100465.19;;;21.45;58.26
64889;BME280;51386;53.082;8.816;2023-08-06T05:39:30;100460.91;;;21.49;58.51
64889;BME280;51386;53.082;8.816;2023-08-06T05:41:57;100471.13;;;21.52;57.89
64889;BME280;51386;53.082;8.816;2023-08-06T05:44:24;100467.41;;;21.53;58.26
64889;BME280;51386;53.082;8.816;2023-08-06T05:46:51;100469.56;;;21.56;58.31
64889;BME280;51386;53.082;8.816;2023-08-06T05:49:20;100476.00;;;21.55;57.41
64889;BME280;51386;53.082;8.816;2023-08-06T05:51:47;100468.50;;;21.57;57.92
64889;BME280;51386;53.082;8.816;2023-08-06T05:54:16;100470.13;;;21.58;57.72
64889;BME280;51386;53.082;8.816;2023-08-06T05:56:43;100467.19;;;21.60;57.82
64889;BME280;51386;53.082;8.816;2023-08-06T05:59:10;100471.25;;;21.63;57.53
64889;BME280;51386;53.082;8.816;2023-08-06T06:01:37;100471.53;;;21.66;57.79
64889;BME280;51386;53.082;8.816;2023-08-06T06:04:04;100475.84;;;21.67;57.69
64889;BME280;51386;53.082;8.816;2023-08-06T06:06:31;100471.84;;;21.70;57.78
64889;BME280;51386;53.082;8.816;2023-08-06T06:08:58;100472.69;;;21.75;57.31
64889;BME280;51386;53.082;8.816;2023-08-06T06:11:27;100466.81;;;21.78;57.26
64889;BME280;51386;53.082;8.816;2023-08-06T06:13:54;100465.47;;;21.76;57.60
64889;BME280;51386;53.082;8.816;2023-08-06T06:16:21;100466.50;;;21.70;57.35
64889;BME280;51386;53.082;8.816;2023-08-06T06:18:48;100471.31;;;21.68;57.55
64889;BME280;51386;53.082;8.816;2023-08-06T06:21:15;100476.06;;;21.66;57.40
64889;BME280;51386;53.082;8.816;2023-08-06T06:23:42;100465.34;;;21.66;57.32
64889;BME280;51386;53.082;8.816;2023-08-06T06:26:09;100466.44;;;21.65;57.28
64889;BME280;51386;53.082;8.816;2023-08-06T06:28:38;100459.50;;;21.69;57.48
64889;BME280;51386;53.082;8.816;2023-08-06T06:31:05;100460.09;;;21.76;57.65
64889;BME280;51386;53.082;8.816;2023-08-06T06:33:32;100460.69;;;21.83;57.43
64889;BME280;51386;53.082;8.816;2023-08-06T06:35:59;100466.69;;;21.90;56.97
64889;BME280;51386;53.082;8.816;2023-08-06T06:38:26;100467.28;;;21.97;56.77
64889;BME280;51386;53.082;8.816;2023-08-06T06:40:54;100477.50;;;22.00;56.58
64889;BME280;51386;53.082;8.816;2023-08-06T06:43:21;100478.53;;;21.99;56.44
64889;BME280;51386;53.082;8.816;2023-08-06T06:45:56;100471.03;;;21.96;56.05
64889;BME280;51386;53.082;8.816;2023-08-06T06:48:27;100480.44;;;21.98;56.57
64889;BME280;51386;53.082;8.816;2023-08-06T06:50:55;100475.09;;;21.98;56.48
64889;BME280;51386;53.082;8.816;2023-08-06T06:53:23;100473.75;;;22.01;56.14
64889;BME280;51386;53.082;8.816;2023-08-06T06:55:54;100485.28;;;22.01;56.61
64889;BME280;51386;53.082;8.816;2023-08-06T06:58:21;100482.91;;;22.05;56.21
64889;BME280;51386;53.082;8.816;2023-08-06T07:00:49;100478.59;;;22.04;55.86
64889;BME280;51386;53.082;8.816;2023-08-06T07:03:17;100478.84;;;22.02;56.23
64889;BME280;51386;53.082;8.816;2023-08-06T07:05:45;100483.91;;;21.99;55.66
64889;BME280;51386;53.082;8.816;2023-08-06T07:08:12;100480.44;;;21.98;55.97
64889;BME280;51386;53.082;8.816;2023-08-06T07:10:41;100482.91;;;22.05;56.14
64889;BME280;51386;53.082;8.816;2023-08-06T07:13:10;100484.03;;;22.14;56.07
64889;BME280;51386;53.082;8.816;2023-08-06T07:15:37;100483.28;;;22.18;55.67
64889;BME280;51386;53.082;8.816;2023-08-06T07:18:04;100485.44;;;22.21;55.41
64889;BME280;51386;53.082;8.816;2023-08-06T07:20:32;100484.41;;;22.27;55.53
64889;BME280;51386;53.082;8.816;2023-08-06T07:23:01;100483.09;;;22.30;55.39
64889;BME280;51386;53.082;8.816;2023-08-06T07:25:28;100483.66;;;22.37;55.43
64889;BME280;51386;53.082;8.816;2023-08-06T07:27:55;100483.19;;;22.45;54.78
64889;BME280;51386;53.082;8.816;2023-08-06T07:30:23;100486.97;;;22.49;55.17
64889;BME280;51386;53.082;8.816;2023-08-06T07:32:50;100476.81;;;22.56;54.90
64889;BME280;51386;53.082;8.816;2023-08-06T07:35:17;100481.78;;;22.69;54.88
64889;BME280;51386;53.082;8.816;2023-08-06T07:37:46;100481.03;;;22.84;54.39
64889;BME280;51386;53.082;8.816;2023-08-06T07:40:13;100478.13;;;22.96;54.10
64889;BME280;51386;53.082;8.816;2023-08-06T07:42:40;100484.09;;;23.08;53.89
64889;BME280;51386;53.082;8.816;2023-08-06T07:45:09;100481.19;;;23.19;53.94
64889;BME280;51386;53.082;8.816;2023-08-06T07:47:37;100485.25;;;23.27;53.67
64889;BME280;51386;53.082;8.816;2023-08-06T07:50:05;100487.38;;;23.30;53.30
64889;BME280;51386;53.082;8.816;2023-08-06T07:52:32;100482.59;;;23.37;53.44
64889;BME280;51386;53.082;8.816;2023-08-06T07:55:01;100480.75;;;23.52;53.00
64889;BME280;51386;53.082;8.816;2023-08-06T07:57:32;100478.91;;;23.68;52.74
64889;BME280;51386;53.082;8.816;2023-08-06T07:59:59;100479.72;;;23.84;52.21
64889;BME280;51386;53.082;8.816;2023-08-06T08:02:27;100475.19;;;24.09;51.91
64889;BME280;51386;53.082;8.816;2023-08-06T08:04:54;100478.94;;;24.34;51.25
64889;BME280;51386;53.082;8.816;2023-08-06T08:07:21;100473.72;;;24.77;51.15
64889;BME280;51386;53.082;8.816;2023-08-06T08:09:48;100470.06;;;26.05;49.20
64889;BME280;51386;53.082;8.816;2023-08-06T08:12:16;100469.34;;;27.60;47.02
64889;BME280;51386;53.082;8.816;2023-08-06T08:14:43;100463.88;;;28.75;43.83
64889;BME280;51386;53.082;8.816;2023-08-06T08:17:12;100460.78;;;29.81;42.03
64889;BME280;51386;53.082;8.816;2023-08-06T08:19:40;100458.94;;;30.91;40.26
64889;BME280;51386;53.082;8.816;2023-08-06T08:22:07;100457.53;;;31.96;37.75
64889;BME280;51386;53.082;8.816;2023-08-06T08:24:34;100453.56;;;32.86;35.93
64889;BME280;51386;53.082;8.816;2023-08-06T08:27:01;100449.63;;;33.46;34.94
64889;BME280;51386;53.082;8.816;2023-08-06T08:29:30;100442.19;;;34.20;33.69
64889;BME280;51386;53.082;8.816;2023-08-06T08:31:57;100449.31;;;34.94;31.57
64889;BME280;51386;53.082;8.816;2023-08-06T08:34:26;100442.31;;;35.60;30.67
64889;BME280;51386;53.082;8.816;2023-08-06T08:36:53;100437.13;;;35.98;29.39
64889;BME280;51386;53.082;8.816;2023-08-06T08:39:20;100448.19;;;36.18;28.67
64889;BME280;51386;53.082;8.816;2023-08-06T08:41:47;100436.53;;;35.93;29.28
64889;BME280;51386;53.082;8.816;2023-08-06T08:44:17;100442.94;;;35.54;29.55
64889;BME280;51386;53.082;8.816;2023-08-06T08:46:48;100441.44;;;35.44;29.35
64889;BME280;51386;53.082;8.816;2023-08-06T08:49:16;100439.16;;;35.06;29.67
64889;BME280;51386;53.082;8.816;2023-08-06T08:51:46;100427.88;;;34.59;30.54
64889;BME280;51386;53.082;8.816;2023-08-06T08:54:15;100427.97;;;34.39;30.77
64889;BME280;51386;53.082;8.816;2023-08-06T08:56:44;100430.59;;;34.47;31.11
64889;BME280;51386;53.082;8.816;2023-08-06T08:59:11;100430.16;;;34.57;30.71
64889;BME280;51386;53.082;8.816;2023-08-06T09:01:40;100428.47;;;34.53;30.32
64889;BME280;51386;53.082;8.816;2023-08-06T09:04:11;100422.13;;;34.28;30.91
64889;BME280;51386;53.082;8.816;2023-08-06T09:06:40;100425.94;;;34.60;30.59
64889;BME280;51386;53.082;8.816;2023-08-06T09:09:12;100417.31;;;35.22;29.90
64889;BME280;51386;53.082;8.816;2023-08-06T09:11:44;100423.59;;;36.06;28.68
64889;BME280;51386;53.082;8.816;2023-08-06T09:14:11;100424.78;;;36.86;27.89
64889;BME280;51386;53.082;8.816;2023-08-06T09:16:38;100415.97;;;37.88;26.61
64889;BME280;51386;53.082;8.816;2023-08-06T09:19:11;100417.53;;;38.84;25.50
64889;BME280;51386;53.082;8.816;2023-08-06T09:21:45;100416.81;;;39.46;25.14
64889;BME280;51386;53.082;8.816;2023-08-06T09:24:15;100418.69;;;39.75;24.11
64889;BME280;51386;53.082;8.816;2023-08-06T09:26:44;100417.50;;;40.13;24.19
64889;BME280;51386;53.082;8.816;2023-08-06T09:29:11;100417.88;;;40.59;23.13
64889;BME280;51386;53.082;8.816;2023-08-06T09:31:43;100412.44;;;40.73;22.42
64889;BME280;51386;53.082;8.816;2023-08-06T09:34:15;100417.59;;;40.78;22.33
64889;BME280;51386;53.082;8.816;2023-08-06T09:36:47;100413.91;;;41.22;22.70
64889;BME280;51386;53.082;8.816;2023-08-06T09:39:16;100417.94;;;41.42;21.38
64889;BME280;51386;53.082;8.816;2023-08-06T09:41:44;100421.53;;;41.53;21.58
64889;BME280;51386;53.082;8.816;2023-08-06T09:44:16;100413.72;;;41.76;21.83
64889;BME280;51386;53.082;8.816;2023-08-06T09:46:47;100411.78;;;42.12;21.41
64889;BME280;51386;53.082;8.816;2023-08-06T09:49:17;100413.38;;;42.30;20.65
64889;BME280;51386;53.082;8.816;2023-08-06T09:51:47;100406.25;;;42.36;20.28
64889;BME280;51386;53.082;8.816;2023-08-06T09:54:18;100417.31;;;42.58;20.18
64889;BME280;51386;53.082;8.816;2023-08-06T09:56:54;100403.41;;;42.93;20.46
64889;BME280;51386;53.082;8.816;2023-08-06T09:59:23;100406.38;;;43.37;20.05
64889;BME280;51386;53.082;8.816;2023-08-06T10:01:51;100405.50;;;43.54;19.50
64889;BME280;51386;53.082;8.816;2023-08-06T10:04:21;100402.66;;;43.68;20.10
64889;BME280;51386;53.082;8.816;2023-08-06T10:06:53;100409.88;;;44.10;18.94
64889;BME280;51386;53.082;8.816;2023-08-06T10:09:21;100398.19;;;44.33;19.15
64889;BME280;51386;53.082;8.816;2023-08-06T10:11:51;100402.81;;;44.50;18.63
64889;BME280;51386;53.082;8.816;2023-08-06T10:14:27;100401.28;;;44.42;17.75
64889;BME280;51386;53.082;8.816;2023-08-06T10:16:57;100399.25;;;44.50;18.13
64889;BME280;51386;53.082;8.816;2023-08-06T10:19:27;100399.19;;;44.53;17.37
64889;BME280;51386;53.082;8.816;2023-08-06T10:22:11;100404.47;;;44.81;17.53
64889;BME280;51386;53.082;8.816;2023-08-06T10:24:50;100396.66;;;44.69;17.14
64889;BME280;51386;53.082;8.816;2023-08-06T10:27:30;100396.81;;;43.49;17.57
64889;BME280;51386;53.082;8.816;2023-08-06T10:30:23;100394.00;;;42.27;18.89
64889;BME280;51386;53.082;8.816;2023-08-06T10:32:57;100399.50;;;41.88;19.09
64889;BME280;51386;53.082;8.816;2023-08-06T10:35:35;100403.00;;;41.64;19.11
64889;BME280;51386;53.082;8.816;2023-08-06T10:38:05;100412.47;;;41.63;19.16
64889;BME280;51386;53.082;8.816;2023-08-06T10:40:33;100405.75;;;41.64;19.13
64889;BME280;51386;53.082;8.816;2023-08-06T10:43:01;100403.16;;;41.06;19.59
64889;BME280;51386;53.082;8.816;2023-08-06T10:45:28;100398.22;;;40.68;20.22
64889;BME280;51386;53.082;8.816;2023-08-06T10:47:57;100390.50;;;40.40;21.59
64889;BME280;51386;53.082;8.816;2023-08-06T10:50:25;100389.22;;;39.79;21.93
64889;BME280;51386;53.082;8.816;2023-08-06T10:52:54;100389.16;;;38.80;22.37
64889;BME280;51386;53.082;8.816;2023-08-06T10:55:26;100388.97;;;37.75;23.14
64889;BME280;51386;53.082;8.816;2023-08-06T10:57:55;100388.19;;;36.63;24.18
64889;BME280;51386;53.082;8.816;2023-08-06T11:00:23;100390.63;;;35.59;25.73
64889;BME280;51386;53.082;8.816;2023-08-06T11:02:52;100387.06;;;34.66;26.17
64889;BME280;51386;53.082;8.816;2023-08-06T11:05:20;100386.31;;;33.85;26.65
64889;BME280;51386;53.082;8.816;2023-08-06T11:07:48;100379.06;;;33.15;27.67
64889;BME280;51386;53.082;8.816;2023-08-06T11:10:17;100383.78;;;32.56;28.85
64889;BME280;51386;53.082;8.816;2023-08-06T11:12:45;100377.09;;;32.07;29.75
64889;BME280;51386;53.082;8.816;2023-08-06T11:15:12;100378.28;;;31.72;30.34
64889;BME280;51386;53.082;8.816;2023-08-06T11:17:41;100379.97;;;31.47;30.45
64889;BME280;51386;53.082;8.816;2023-08-06T11:20:09;100378.81;;;31.22;31.80
64889;BME280;51386;53.082;8.816;2023-08-06T11:22:37;100368.41;;;30.99;32.07
64889;BME280;51386;53.082;8.816;2023-08-06T11:25:07;100370.13;;;30.77;32.49
64889;BME280;51386;53.082;8.816;2023-08-06T11:27:35;100379.84;;;30.61;32.50
64889;BME280;51386;53.082;8.816;2023-08-06T11:30:03;100375.94;;;30.45;32.97
64889;BME280;51386;53.082;8.816;2023-08-06T11:32:30;100373.16;;;30.28;33.97
64889;BME280;51386;53.082;8.816;2023-08-06T11:34:58;100374.06;;;30.15;34.33
64889;BME280;51386;53.082;8.816;2023-08-06T11:37:25;100371.75;;;30.00;35.03
64889;BME280;51386;53.082;8.816;2023-08-06T11:39:52;100369.94;;;29.87;36.02
64889;BME280;51386;53.082;8.816;2023-08-06T11:42:20;100360.63;;;29.79;35.64
64889;BME280;51386;53.082;8.816;2023-08-06T11:44:48;100358.56;;;29.76;35.46
64889;BME280;51386;53.082;8.816;2023-08-06T11:47:17;100355.50;;;29.78;34.94
64889;BME280;51386;53.082;8.816;2023-08-06T11:49:46;100352.28;;;29.76;33.85
64889;BME280;51386;53.082;8.816;2023-08-06T11:52:16;100350.91;;;29.65;34.44
64889;BME280;51386;53.082;8.816;2023-08-06T11:54:47;100350.06;;;29.56;34.82
64889;BME280;51386;53.082;8.816;2023-08-06T11:57:15;100347.34;;;29.56;34.59
64889;BME280;51386;53.082;8.816;2023-08-06T11:59:45;100355.00;;;29.54;35.16
64889;BME280;51386;53.082;8.816;2023-08-06T12:02:13;100351.81;;;29.52;35.27
64889;BME280;51386;53.082;8.816;2023-08-06T12:05:01;100335.88;;;29.59;35.52
64889;BME280;51386;53.082;8.816;2023-08-06T12:07:29;100342.03;;;29.73;35.69
64889;BME280;51386;53.082;8.816;2023-08-06T12:09:58;100339.22;;;29.78;35.11
64889;BME280;51386;53.082;8.816;2023-08-06T12:12:25;100339.81;;;29.75;35.26
64889;BME280;51386;53.082;8.816;2023-08-06T12:14:52;100341.31;;;29.81;35.22
64889;BME280;51386;53.082;8.816;2023-08-06T12:17:21;100336.59;;;29.95;34.64
64889;BME280;51386;53.082;8.816;2023-08-06T12:19:48;100336.59;;;30.34;33.80
64889;BME280;51386;53.082;8.816;2023-08-06T12:22:16;100324.66;;;30.52;34.02
64889;BME280;51386;53.082;8.816;2023-08-06T12:24:44;100331.84;;;30.48;34.06
64889;BME280;51386;53.082;8.816;2023-08-06T12:27:13;100327.63;;;30.34;33.82
64889;BME280;51386;53.082;8.816;2023-08-06T12:29:42;100323.72;;;30.17;33.53
64889;BME280;51386;53.082;8.816;2023-08-06T12:32:10;100328.81;;;30.02;34.78
64889;BME280;51386;53.082;8.816;2023-08-06T12:34:40;100325.88;;;29.90;34.27
64889;BME280;51386;53.082;8.816;2023-08-06T12:37:19;100318.66;;;29.85;35.47
64889;BME280;51386;53.082;8.816;2023-08-06T12:39:46;100328.25;;;29.91;35.83
64889;BME280;51386;53.082;8.816;2023-08-06T12:42:14;100318.47;;;29.82;35.81
64889;BME280;51386;53.082;8.816;2023-08-06T12:44:41;100325.41;;;29.66;35.66
64889;BME280;51386;53.082;8.816;2023-08-06T12:47:08;100327.88;;;29.54;36.18
64889;BME280;51386;53.082;8.816;2023-08-06T12:49:35;100319.38;;;29.46;36.44
64889;BME280;51386;53.082;8.816;2023-08-06T12:52:04;100335.78;;;29.41;36.62
64889;BME280;51386;53.082;8.816;2023-08-06T12:54:33;100328.00;;;29.26;37.68
64889;BME280;51386;53.082;8.816;2023-08-06T12:57:04;100331.56;;;29.13;37.17